createdAt,value
2018-04-29T00:02:20.919Z,2.70
2018-04-29T00:04:48.535Z,2.50
2018-04-29T00:07:16.163Z,3.00
2018-04-29T00:09:44.599Z,3.00
2018-04-29T00:12:12.207Z,3.00
2018-04-29T00:14:40.589Z,3.00
2018-04-29T00:17:09.039Z,3.20
2018-04-29T00:19:36.647Z,3.20
2018-04-29T00:22:04.282Z,2.90
2018-04-29T00:24:32.714Z,2.70
2018-04-29T00:27:00.319Z,2.70
2018-04-29T00:29:27.936Z,3.10
2018-04-29T00:31:55.716Z,2.90
2018-04-29T00:34:23.329Z,2.70
2018-04-29T00:36:50.954Z,2.50
2018-04-29T00:39:18.633Z,2.60
2018-04-29T00:41:47.044Z,2.50
2018-04-29T00:44:14.658Z,2.40
2018-04-29T00:46:42.331Z,2.60
2018-04-29T00:49:09.939Z,2.50
2018-04-29T00:51:49.399Z,2.70
2018-04-29T00:54:17.025Z,2.70
2018-04-29T00:56:44.641Z,2.60
2018-04-29T00:59:12.311Z,2.80
2018-04-29T01:01:39.937Z,3.00
2018-04-29T01:04:07.555Z,3.00
2018-04-29T01:06:36.009Z,2.70
2018-04-29T01:09:03.678Z,2.60
2018-04-29T01:11:31.403Z,2.30
2018-04-29T01:13:59.079Z,2.70
2018-04-29T01:16:26.686Z,2.70
2018-04-29T01:18:55.062Z,2.30
2018-04-29T01:21:23.512Z,2.40
2018-04-29T01:23:51.132Z,2.40
2018-04-29T01:26:18.844Z,2.30
2018-04-29T01:28:46.566Z,2.00
2018-04-29T01:31:14.235Z,1.90
2018-04-29T01:33:41.908Z,1.80
2018-04-29T01:36:09.598Z,2.20
2018-04-29T01:38:37.209Z,2.30
2018-04-29T01:41:04.822Z,2.20
2018-04-29T01:43:32.509Z,2.40
2018-04-29T01:46:00.890Z,2.00
2018-04-29T01:48:28.535Z,2.00
2018-04-29T01:50:56.218Z,2.10
2018-04-29T01:53:23.826Z,2.50
2018-04-29T01:55:52.339Z,2.20
2018-04-29T01:58:20.025Z,2.10
2018-04-29T02:00:47.650Z,2.00
2018-04-29T02:03:15.274Z,2.10
2018-04-29T02:05:42.952Z,2.00
2018-04-29T02:08:10.583Z,1.70
2018-04-29T02:10:38.191Z,1.80
2018-04-29T02:13:05.890Z,1.70
2018-04-29T02:15:34.767Z,2.20
2018-04-29T02:18:02.387Z,2.20
2018-04-29T02:20:30.059Z,2.30
2018-04-29T02:22:57.691Z,2.10
2018-04-29T02:25:25.295Z,2.20
2018-04-29T02:27:52.972Z,1.70
2018-04-29T02:30:20.595Z,2.10
2018-04-29T02:32:48.210Z,2.10
2018-04-29T02:35:16.665Z,1.80
2018-04-29T02:37:44.282Z,1.80
2018-04-29T02:40:11.904Z,1.90
2018-04-29T02:42:40.363Z,1.30
2018-04-29T02:45:07.976Z,1.20
2018-04-29T02:47:35.629Z,1.60
2018-04-29T02:50:03.312Z,1.60
2018-04-29T02:52:30.916Z,1.60
2018-04-29T02:54:58.530Z,2.10
2018-04-29T02:57:26.213Z,1.80
2018-04-29T02:59:53.836Z,2.20
2018-04-29T03:02:22.220Z,2.50
2018-04-29T03:04:49.880Z,2.50
2018-04-29T03:07:17.501Z,2.30
2018-04-29T03:09:45.138Z,2.70
2018-04-29T03:12:12.828Z,2.70
2018-04-29T03:14:40.457Z,2.60
2018-04-29T03:17:08.076Z,2.80
2018-04-29T03:19:36.511Z,2.80
2018-04-29T03:22:04.131Z,2.70
2018-04-29T03:24:31.753Z,2.70
2018-04-29T03:26:59.452Z,2.80
2018-04-29T03:29:27.079Z,2.50
2018-04-29T03:31:54.692Z,2.60
2018-04-29T03:34:22.374Z,2.70
2018-04-29T03:36:49.999Z,2.70
2018-04-29T03:39:18.377Z,2.70
2018-04-29T03:41:46.815Z,2.80
2018-04-29T03:44:14.427Z,2.80
2018-04-29T03:46:42.033Z,2.50
2018-04-29T03:49:09.709Z,2.40
2018-04-29T03:51:37.319Z,2.60
2018-04-29T03:54:04.927Z,2.70
2018-04-29T03:56:32.599Z,2.50
2018-04-29T03:59:11.928Z,2.90
2018-04-29T04:01:51.679Z,2.70
2018-04-29T04:04:18.929Z,2.50
2018-04-29T04:06:46.547Z,2.70
2018-04-29T04:09:14.224Z,2.80
2018-04-29T04:11:41.839Z,2.50
2018-04-29T04:14:10.219Z,2.40
2018-04-29T04:16:39.012Z,2.60
2018-04-29T04:19:06.636Z,2.50
2018-04-29T04:21:34.259Z,2.50
2018-04-29T04:24:01.935Z,2.60
2018-04-29T04:26:29.558Z,2.50
2018-04-29T04:28:57.946Z,2.70
2018-04-29T04:31:25.624Z,2.70
2018-04-29T04:33:53.231Z,2.70
2018-04-29T04:36:20.851Z,2.80
2018-04-29T04:38:48.660Z,2.70
2018-04-29T04:41:16.272Z,2.70
2018-04-29T04:43:43.890Z,2.70
2018-04-29T04:46:11.595Z,2.80
2018-04-29T04:48:39.219Z,2.70
2018-04-29T04:51:06.837Z,2.80
2018-04-29T04:53:34.507Z,2.80
2018-04-29T04:56:02.142Z,2.90
2018-04-29T04:58:29.754Z,2.90
2018-04-29T05:00:57.426Z,2.70
2018-04-29T05:03:25.049Z,2.80
2018-04-29T05:05:52.675Z,2.70
2018-04-29T05:08:20.343Z,3.00
2018-04-29T05:10:47.989Z,2.90
2018-04-29T05:13:16.399Z,3.20
2018-04-29T05:15:44.089Z,3.20
2018-04-29T05:18:11.699Z,3.20
2018-04-29T05:20:40.068Z,3.30
2018-04-29T05:23:08.594Z,3.40
2018-04-29T05:25:36.937Z,3.50
2018-04-29T05:28:05.340Z,3.40
2018-04-29T05:30:33.019Z,3.40
2018-04-29T05:33:00.629Z,3.40
2018-04-29T05:35:29.123Z,3.50
2018-04-29T05:37:56.736Z,3.50
2018-04-29T05:40:24.367Z,3.60
2018-04-29T05:42:53.630Z,3.70
2018-04-29T05:45:21.324Z,3.60
2018-04-29T05:47:48.954Z,3.90
2018-04-29T05:50:17.414Z,4.10
2018-04-29T05:52:45.030Z,4.00
2018-04-29T05:55:12.661Z,4.30
2018-04-29T05:57:41.103Z,4.40
2018-04-29T06:00:08.713Z,4.40
2018-04-29T06:02:37.096Z,4.60
2018-04-29T06:05:05.544Z,4.70
2018-04-29T06:07:33.156Z,4.60
2018-04-29T06:10:00.768Z,4.90
2018-04-29T06:12:28.580Z,4.80
2018-04-29T06:14:56.192Z,4.80
2018-04-29T06:17:23.824Z,4.80
2018-04-29T06:19:51.516Z,5.00
2018-04-29T06:22:19.141Z,5.10
2018-04-29T06:24:46.773Z,5.60
2018-04-29T06:27:15.256Z,5.70
2018-04-29T06:29:43.650Z,5.80
2018-04-29T06:32:11.272Z,5.70
2018-04-29T06:34:38.947Z,5.60
2018-04-29T06:37:06.564Z,6.20
2018-04-29T06:39:34.186Z,6.20
2018-04-29T06:42:01.858Z,6.10
2018-04-29T06:44:29.479Z,6.40
2018-04-29T06:46:57.169Z,6.10
2018-04-29T06:49:25.024Z,6.10
2018-04-29T06:51:53.523Z,6.50
2018-04-29T06:54:21.217Z,6.50
2018-04-29T06:56:49.675Z,6.80
2018-04-29T06:59:17.314Z,6.70
2018-04-29T07:01:45.696Z,6.90
2018-04-29T07:04:14.148Z,7.20
2018-04-29T07:06:41.767Z,7.10
2018-04-29T07:09:09.380Z,7.50
2018-04-29T07:11:37.065Z,7.80
2018-04-29T07:14:05.522Z,8.10
2018-04-29T07:16:33.083Z,8.00
2018-04-29T07:19:00.781Z,8.30
2018-04-29T07:21:28.396Z,7.70
2018-04-29T07:23:56.016Z,8.00
2018-04-29T07:26:23.711Z,7.60
2018-04-29T07:28:51.336Z,8.30
2018-04-29T07:31:18.952Z,7.80
2018-04-29T07:33:46.648Z,7.80
2018-04-29T07:36:14.267Z,8.30
2018-04-29T07:38:41.878Z,8.40
2018-04-29T07:41:09.568Z,8.80
2018-04-29T07:43:37.228Z,8.40
2018-04-29T07:46:04.863Z,8.70
2018-04-29T07:48:32.543Z,8.50
2018-04-29T07:51:00.152Z,8.90
2018-04-29T07:53:27.775Z,9.10
2018-04-29T07:55:55.460Z,9.10
2018-04-29T07:58:23.082Z,9.30
2018-04-29T08:00:50.766Z,9.60
2018-04-29T08:03:18.460Z,9.30
2018-04-29T08:05:46.071Z,9.30
2018-04-29T08:08:13.691Z,9.40
2018-04-29T08:10:42.140Z,9.30
2018-04-29T08:13:09.756Z,9.30
2018-04-29T08:15:37.394Z,9.50
2018-04-29T08:18:05.860Z,10.00
2018-04-29T08:20:33.476Z,9.90
2018-04-29T08:23:01.103Z,9.80
2018-04-29T08:25:29.571Z,10.00
2018-04-29T08:27:57.194Z,9.90
2018-04-29T08:30:24.815Z,10.20
2018-04-29T08:32:52.517Z,9.60
2018-04-29T08:35:20.148Z,10.40
2018-04-29T08:37:47.776Z,10.70
2018-04-29T08:40:15.468Z,10.50
2018-04-29T08:42:43.860Z,10.70
2018-04-29T08:45:11.484Z,10.70
2018-04-29T08:50:13.073Z,10.90
2018-04-29T08:52:41.526Z,11.30
2018-04-29T08:55:09.155Z,11.30
2018-04-29T08:57:36.780Z,11.40
2018-04-29T09:00:05.251Z,11.80
2018-04-29T09:02:33.636Z,12.40
2018-04-29T09:05:02.029Z,11.20
2018-04-29T09:07:29.714Z,11.20
2018-04-29T09:09:57.336Z,12.20
2018-04-29T09:12:25.728Z,12.30
2018-04-29T09:14:54.176Z,12.50
2018-04-29T09:17:21.797Z,12.50
2018-04-29T09:19:49.411Z,12.00
2018-04-29T09:22:17.112Z,12.30
2018-04-29T09:24:44.734Z,11.50
2018-04-29T09:27:12.354Z,12.20
2018-04-29T09:29:40.042Z,11.90
2018-04-29T09:32:07.664Z,11.60
2018-04-29T09:34:35.279Z,12.60
2018-04-29T09:37:03.260Z,12.70
2018-04-29T09:39:30.860Z,12.90
2018-04-29T09:41:58.472Z,13.30
2018-04-29T09:44:26.164Z,12.80
2018-04-29T09:46:53.783Z,12.40
2018-04-29T09:49:21.411Z,13.10
2018-04-29T09:51:49.092Z,12.20
2018-04-29T09:54:16.707Z,12.10
2018-04-29T09:56:44.336Z,14.70
2018-04-29T09:59:12.027Z,14.40
2018-04-29T10:01:40.458Z,12.80
2018-04-29T10:04:08.079Z,12.80
2018-04-29T10:06:35.755Z,14.00
2018-04-29T10:09:03.415Z,13.60
2018-04-29T10:11:31.041Z,14.10
2018-04-29T10:13:58.719Z,15.10
2018-04-29T10:16:27.106Z,14.10
2018-04-29T10:18:54.812Z,14.10
2018-04-29T10:21:23.206Z,15.50
2018-04-29T10:23:50.827Z,15.40
2018-04-29T10:26:18.450Z,15.40
2018-04-29T10:28:46.896Z,12.90
2018-04-29T10:31:14.507Z,12.80
2018-04-29T10:33:42.886Z,12.60
2018-04-29T10:36:10.585Z,12.50
2018-04-29T10:38:38.217Z,12.40
2018-04-29T10:41:05.904Z,12.10
2018-04-29T10:43:33.575Z,11.70
2018-04-29T10:46:01.196Z,11.90
2018-04-29T10:48:29.583Z,12.10
2018-04-29T10:50:57.270Z,12.00
2018-04-29T10:53:24.887Z,12.10
2018-04-29T10:55:53.293Z,11.70
2018-04-29T10:58:20.977Z,11.70
2018-04-29T11:00:48.602Z,12.40
2018-04-29T11:03:16.979Z,12.40
2018-04-29T11:05:45.451Z,12.00
2018-04-29T11:08:13.855Z,13.30
2018-04-29T11:10:41.475Z,13.30
2018-04-29T11:13:09.158Z,15.70
2018-04-29T11:15:37.559Z,16.80
2018-04-29T11:18:05.196Z,16.70
2018-04-29T11:20:33.655Z,17.90
2018-04-29T11:23:01.277Z,17.90
2018-04-29T11:25:28.927Z,18.30
2018-04-29T11:27:56.613Z,17.40
2018-04-29T11:30:24.230Z,15.70
2018-04-29T11:32:52.635Z,18.30
2018-04-29T11:35:20.322Z,18.20
2018-04-29T11:37:47.948Z,16.70
2018-04-29T11:40:15.574Z,17.30
2018-04-29T11:42:43.239Z,17.40
2018-04-29T11:45:10.899Z,17.10
2018-04-29T11:47:38.511Z,17.60
2018-04-29T11:50:06.180Z,18.40
2018-04-29T11:52:33.799Z,18.30
2018-04-29T11:55:02.193Z,15.10
2018-04-29T11:57:30.638Z,14.30
2018-04-29T11:59:58.255Z,14.20
2018-04-29T12:02:25.950Z,14.30
2018-04-29T12:04:53.595Z,13.80
2018-04-29T12:07:21.220Z,14.20
2018-04-29T12:09:49.660Z,14.80
2018-04-29T12:12:17.298Z,14.80
2018-04-29T12:14:44.918Z,14.90
2018-04-29T12:17:13.300Z,15.50
2018-04-29T12:19:41.729Z,15.20
2018-04-29T12:22:09.377Z,15.20
2018-04-29T12:24:37.075Z,14.50
2018-04-29T12:27:04.731Z,14.30
2018-04-29T12:29:32.347Z,13.70
2018-04-29T12:31:59.968Z,13.80
2018-04-29T12:34:27.639Z,13.70
2018-04-29T12:36:55.255Z,13.10
2018-04-29T12:39:22.869Z,12.80
2018-04-29T12:41:51.339Z,13.00
2018-04-29T12:44:19.742Z,12.70
2018-04-29T12:46:48.131Z,12.80
2018-04-29T12:49:15.816Z,12.80
2018-04-29T12:51:43.432Z,12.60
2018-04-29T12:56:46.373Z,12.50
2018-04-29T12:59:13.991Z,12.50
2018-04-29T13:01:41.613Z,12.30
2018-04-29T13:04:09.308Z,12.20
2018-04-29T13:06:36.934Z,12.70
2018-04-29T13:09:04.595Z,12.70
2018-04-29T13:11:32.280Z,12.40
2018-04-29T13:13:59.904Z,12.30
2018-04-29T13:16:27.527Z,12.30
2018-04-29T13:18:55.992Z,12.20
2018-04-29T13:21:23.617Z,12.10
2018-04-29T13:23:51.253Z,12.20
2018-04-29T13:26:18.931Z,12.00
2018-04-29T13:28:46.556Z,12.20
2018-04-29T13:31:14.947Z,12.70
2018-04-29T13:33:43.411Z,13.90
2018-04-29T13:36:11.040Z,13.90
2018-04-29T13:38:38.737Z,13.70
2018-04-29T13:41:07.158Z,12.80
2018-04-29T13:43:34.776Z,12.70
2018-04-29T13:46:02.475Z,13.20
2018-04-29T13:48:30.095Z,12.80
2018-04-29T13:50:57.724Z,13.10
2018-04-29T13:53:25.431Z,12.90
2018-04-29T13:55:53.827Z,13.30
2018-04-29T13:58:22.219Z,13.40
2018-04-29T14:00:49.897Z,13.40
2018-04-29T14:03:17.565Z,13.20
2018-04-29T14:05:45.185Z,12.70
2018-04-29T14:08:13.639Z,12.80
2018-04-29T14:10:41.340Z,12.70
2018-04-29T14:13:08.908Z,12.70
2018-04-29T14:15:36.687Z,12.50
2018-04-29T14:18:04.320Z,12.90
2018-04-29T14:20:32.714Z,12.40
2018-04-29T14:23:00.407Z,12.30
2018-04-29T14:25:28.064Z,12.70
2018-04-29T14:27:55.680Z,13.60
2018-04-29T14:30:24.153Z,13.80
2018-04-29T14:32:52.547Z,13.10
2018-04-29T14:35:20.930Z,13.20
2018-04-29T14:37:49.389Z,13.00
2018-04-29T14:40:17.008Z,12.90
2018-04-29T14:42:44.643Z,13.60
2018-04-29T14:45:12.346Z,13.20
2018-04-29T14:47:39.980Z,12.90
2018-04-29T14:50:07.608Z,12.70
2018-04-29T14:52:36.063Z,13.40
2018-04-29T14:55:03.690Z,13.40
2018-04-29T14:57:31.323Z,12.80
2018-04-29T14:59:59.711Z,13.10
2018-04-29T15:02:28.331Z,13.10
2018-04-29T15:04:55.966Z,13.30
2018-04-29T15:07:23.589Z,13.30
2018-04-29T15:09:51.284Z,13.50
2018-04-29T15:12:18.895Z,13.30
2018-04-29T15:14:46.510Z,12.90
2018-04-29T15:17:14.199Z,13.60
2018-04-29T15:19:48.680Z,13.40
2018-04-29T15:22:17.143Z,13.30
2018-04-29T15:24:44.767Z,13.30
2018-04-29T15:27:12.392Z,13.30
2018-04-29T15:29:40.086Z,13.50
2018-04-29T15:32:08.575Z,14.00
2018-04-29T15:34:36.209Z,15.00
2018-04-29T15:37:03.914Z,14.40
2018-04-29T15:39:31.537Z,14.00
2018-04-29T15:41:59.155Z,14.80
2018-04-29T15:44:26.855Z,14.70
2018-04-29T15:46:54.474Z,14.70
2018-04-29T15:49:22.127Z,15.10
2018-04-29T15:51:49.807Z,14.70
2018-04-29T15:54:17.459Z,14.40
2018-04-29T15:56:45.099Z,13.90
2018-04-29T15:59:12.794Z,14.10
2018-04-29T16:04:14.299Z,13.90
2018-04-29T16:06:41.912Z,13.40
2018-04-29T16:09:09.522Z,13.70
2018-04-29T16:11:37.222Z,13.40
2018-04-29T16:14:04.864Z,13.30
2018-04-29T16:16:32.479Z,13.20
2018-04-29T16:19:00.916Z,13.20
2018-04-29T16:21:28.547Z,13.10
2018-04-29T16:23:56.200Z,13.20
2018-04-29T16:26:23.906Z,12.90
2018-04-29T16:28:51.527Z,12.80
2018-04-29T16:31:19.147Z,12.70
2018-04-29T16:33:46.859Z,13.10
2018-04-29T16:36:14.476Z,12.80
2018-04-29T16:38:42.097Z,13.10
2018-04-29T16:41:09.791Z,13.10
2018-04-29T16:43:37.416Z,12.60
2018-04-29T16:46:05.068Z,12.40
2018-04-29T16:48:32.754Z,12.10
2018-04-29T16:51:00.375Z,11.80
2018-04-29T16:53:28.031Z,11.30
2018-04-29T16:55:56.490Z,11.70
2018-04-29T16:58:24.123Z,11.60
2018-04-29T17:00:51.748Z,11.50
2018-04-29T17:03:19.509Z,11.50
2018-04-29T17:05:47.134Z,11.60
2018-04-29T17:08:14.756Z,11.30
2018-04-29T17:10:42.431Z,11.20
2018-04-29T17:13:10.068Z,11.30
2018-04-29T17:15:37.689Z,11.40
2018-04-29T17:18:05.366Z,11.50
2018-04-29T17:20:33.802Z,11.40
2018-04-29T17:23:01.419Z,11.30
2018-04-29T17:25:29.119Z,11.50
2018-04-29T17:27:56.738Z,11.10
2018-04-29T17:30:25.120Z,11.30
2018-04-29T17:32:53.582Z,10.90
2018-04-29T17:35:21.195Z,10.80
2018-04-29T17:37:48.806Z,11.00
2018-04-29T17:40:17.523Z,10.70
2018-04-29T17:42:45.196Z,10.60
2018-04-29T17:45:12.843Z,11.00
2018-04-29T17:47:40.554Z,10.60
2018-04-29T17:50:08.943Z,10.50
2018-04-29T17:52:36.597Z,10.50
2018-04-29T17:55:04.293Z,10.40
2018-04-29T17:57:32.729Z,10.30
2018-04-29T18:00:00.353Z,10.30
2018-04-29T18:02:28.098Z,10.40
2018-04-29T18:04:55.740Z,10.30
2018-04-29T18:07:23.369Z,10.60
2018-04-29T18:09:51.821Z,10.30
2018-04-29T18:12:19.440Z,10.30
2018-04-29T18:14:47.061Z,10.10
2018-04-29T18:17:17.762Z,10.50
2018-04-29T18:19:45.636Z,10.20
2018-04-29T18:22:14.024Z,9.80
2018-04-29T18:24:41.749Z,9.70
2018-04-29T18:27:11.149Z,9.70
2018-04-29T18:29:38.767Z,9.60
2018-04-29T18:32:06.513Z,9.70
2018-04-29T18:34:34.250Z,10.40
2018-04-29T18:37:01.908Z,9.60
2018-04-29T18:39:29.740Z,9.60
2018-04-29T18:41:57.378Z,9.70
2018-04-29T18:44:24.990Z,9.60
2018-04-29T18:46:52.655Z,10.30
2018-04-29T18:49:20.267Z,10.10
2018-04-29T18:51:57.009Z,9.70
2018-04-29T18:54:24.650Z,9.20
2018-04-29T18:56:52.270Z,9.70
2018-04-29T18:59:19.958Z,9.80
2018-04-29T19:01:47.634Z,9.70
2018-04-29T19:04:15.274Z,9.20
2018-04-29T19:06:42.954Z,9.50
2018-04-29T19:09:10.574Z,9.20
2018-04-29T19:11:38.206Z,8.80
2018-04-29T19:14:06.690Z,8.30
2018-04-29T19:16:34.380Z,8.30
2018-04-29T19:19:04.362Z,9.00
2018-04-29T19:21:32.051Z,8.70
2018-04-29T19:23:59.797Z,8.30
2018-04-29T19:26:27.332Z,8.20
2018-04-29T19:28:55.016Z,8.20
2018-04-29T19:31:23.554Z,8.00
2018-04-29T19:33:51.094Z,8.00
2018-04-29T19:36:18.791Z,7.60
2018-04-29T19:38:46.418Z,7.90
2018-04-29T19:41:14.032Z,7.60
2018-04-29T19:43:41.737Z,7.50
2018-04-29T19:46:09.355Z,8.10
2018-04-29T19:48:36.968Z,8.20
2018-04-29T19:51:04.688Z,7.50
2018-04-29T19:53:32.302Z,7.70
2018-04-29T19:55:59.926Z,7.40
2018-04-29T19:58:27.610Z,7.20
2018-04-29T20:00:55.228Z,7.70
2018-04-29T20:03:24.080Z,7.60
2018-04-29T20:05:51.771Z,7.60
2018-04-29T20:08:19.423Z,7.60
2018-04-29T20:10:47.047Z,6.80
2018-04-29T20:13:14.744Z,6.60
2018-04-29T20:15:42.375Z,7.30
2018-04-29T20:18:10.143Z,6.60
2018-04-29T20:20:37.852Z,6.90
2018-04-29T20:23:05.488Z,6.20
2018-04-29T20:25:33.105Z,6.60
2018-04-29T20:28:00.797Z,6.40
2018-04-29T20:30:29.085Z,6.10
2018-04-29T20:32:56.710Z,7.00
2018-04-29T20:35:24.389Z,7.00
2018-04-29T20:37:52.014Z,6.30
2018-04-29T20:40:20.415Z,6.00
2018-04-29T20:42:48.106Z,6.00
2018-04-29T20:45:15.720Z,5.90
2018-04-29T20:47:43.373Z,6.00
2018-04-29T20:50:11.051Z,6.10
2018-04-29T20:52:39.444Z,6.10
2018-04-29T20:55:07.065Z,6.00
2018-04-29T20:57:34.763Z,6.20
2018-04-29T21:00:02.405Z,6.20
2018-04-29T21:02:31.255Z,5.50
2018-04-29T21:04:58.871Z,6.00
2018-04-29T21:07:27.551Z,6.40
2018-04-29T21:09:55.992Z,6.50
2018-04-29T21:12:23.598Z,6.50
2018-04-29T21:14:51.975Z,6.20
2018-04-29T21:17:20.453Z,6.30
2018-04-29T21:19:48.930Z,6.30
2018-04-29T21:22:17.318Z,5.90
2018-04-29T21:24:45.766Z,5.60
2018-04-29T21:27:13.390Z,5.50
2018-04-29T21:29:41.004Z,5.70
2018-04-29T21:32:08.676Z,6.10
2018-04-29T21:34:37.055Z,6.00
2018-04-29T21:37:04.695Z,6.00
2018-04-29T21:39:32.365Z,5.50
2018-04-29T21:42:00.007Z,5.60
2018-04-29T21:44:27.628Z,5.50
2018-04-29T21:46:56.071Z,5.70
2018-04-29T21:49:23.696Z,5.70
2018-04-29T21:51:51.327Z,5.40
2018-04-29T21:54:19.013Z,5.80
2018-04-29T21:56:46.631Z,5.90
2018-04-29T21:59:15.006Z,6.30
2018-04-29T22:01:43.467Z,5.90
2018-04-29T22:04:11.141Z,5.90
2018-04-29T22:06:38.750Z,6.40
2018-04-29T22:09:06.422Z,6.40
2018-04-29T22:11:34.031Z,6.20
2018-04-29T22:14:01.662Z,5.70
2018-04-29T22:16:29.351Z,5.80
2018-04-29T22:18:56.979Z,6.00
2018-04-29T22:21:24.619Z,6.00
2018-04-29T22:23:52.291Z,6.60
2018-04-29T22:26:19.903Z,6.50
2018-04-29T22:28:47.512Z,7.00
2018-04-29T22:31:15.191Z,6.40
2018-04-29T22:33:42.800Z,6.50
2018-04-29T22:36:11.183Z,6.70
2018-04-29T22:38:39.615Z,6.80
2018-04-29T22:41:07.235Z,6.70
2018-04-29T22:43:34.860Z,6.90
2018-04-29T22:46:02.560Z,7.00
2018-04-29T22:48:30.183Z,6.80
2018-04-29T22:50:57.807Z,7.10
2018-04-29T22:53:25.469Z,7.30
2018-04-29T22:55:53.091Z,7.10
2018-04-29T22:58:21.475Z,7.30
2018-04-29T23:00:50.671Z,7.20
2018-04-29T23:03:19.054Z,7.10
2018-04-29T23:05:47.427Z,7.30
2018-04-29T23:08:15.882Z,6.90
2018-04-29T23:10:43.498Z,6.90
2018-04-29T23:13:11.128Z,7.10
2018-04-29T23:15:39.589Z,7.00
2018-04-29T23:18:07.203Z,7.00
2018-04-29T23:20:34.820Z,7.00
2018-04-29T23:23:02.500Z,7.00
2018-04-29T23:25:30.933Z,7.10
2018-04-29T23:27:58.546Z,7.00
2018-04-29T23:30:26.219Z,7.00
2018-04-29T23:32:53.827Z,7.00
2018-04-29T23:35:21.515Z,6.70
2018-04-29T23:37:49.143Z,6.80
2018-04-29T23:40:16.771Z,6.70
2018-04-29T23:42:44.388Z,6.70
2018-04-29T23:45:12.081Z,6.90
2018-04-29T23:47:39.788Z,6.80
2018-04-29T23:50:08.119Z,6.50
2018-04-29T23:52:36.563Z,6.80
2018-04-29T23:55:04.185Z,6.80
2018-04-29T23:57:31.801Z,6.80
2018-04-29T23:59:59.463Z,6.90
